Latest Weather Observations for Pallamana

IDS60801

Issued at 5:21 am CST Wednesday 2 September 2026 (issued every 10 minutes, with the page automatically refreshed every 10 minutes)

About weather observations | Map of weather stations | Latest weather observations for SA | Other Formats
Station Details ID: 024584 Name: PALLAMANA AERODROME Lat: -35.06 Lon: 139.23 Height: 45.0 m
Data from the previous 72 hours. | See also: Recent months at Pallamana
Date/Time
CST
Temp
°C
App
Temp
°C
Dew
Point
°C
Rel
Hum
%
Delta-T
°C
Wind Press
QNH
hPa
Press
MSL
hPa
Rain since
9am
mm
Dir  Spd
km/h
Gust
km/h
Spd
kts
Gust
kts
02/05:00am 11.9 11.4 11.9 100 0.0 ESE 6 7 3 4 1016.9 1016.9 0.8
02/04:30am 12.3 11.9 12.3 100 0.0 W 6 6 3 3 1016.7 1016.7 0.8
02/04:00am 12.3 11.7 12.3 100 0.0 WSW 7 7 4 4 1016.6 1016.6 0.8
02/03:30am 12.2 11.6 12.2 100 0.0 SW 7 9 4 5 1016.7 1016.7 0.8
02/03:00am 12.1 11.4 12.1 100 0.0 SW 7 7 4 4 1016.7 1016.7 0.8
02/02:30am 12.2 11.2 12.2 100 0.0 SW 9 11 5 6 1016.8 1016.8 0.8
02/02:00am 12.0 10.4 11.5 97 0.3 SW 11 13 6 7 1016.9 1016.9 0.8
02/01:30am 13.3 11.7 12.8 97 0.3 SW 13 15 7 8 1016.9 1016.9 0.8
02/01:00am 13.5 11.9 12.9 96 0.3 SW 13 19 7 10 1016.8 1016.8 0.8
02/12:30am 13.2 12.0 12.9 98 0.2 SSW 11 15 6 8 1016.6 1016.6 0.8
02/12:00am 13.9 12.8 13.1 95 0.4 SW 11 15 6 8 1016.7 1016.7 0.8
 
Date/Time
CST
Temp
°C
App
Temp
°C
Dew
Point
°C
Rel
Hum
%
Delta-T
°C
Wind Press
QNH
hPa
Press
MSL
hPa
Rain since
9am
mm
Dir  Spd
km/h
Gust
km/h
Spd
kts
Gust
kts
01/11:30pm 14.0 12.2 13.2 95 0.4 WSW 15 17 8 9 1016.7 1016.7 0.8
01/11:00pm 13.6 11.8 12.2 91 0.8 WSW 13 15 7 8 1016.7 1016.7 0.8
01/10:30pm 14.3 12.9 12.3 88 1.1 W 11 13 6 7 1016.8 1016.8 0.8
01/10:00pm 14.7 13.7 12.4 86 1.3 W 9 11 5 6 1016.9 1016.9 0.8
01/09:30pm 14.2 13.4 12.8 91 0.8 WSW 9 11 5 6 1017.0 1017.0 0.8
01/09:00pm 14.6 12.9 12.3 86 1.3 W 13 15 7 8 1016.8 1016.8 0.8
01/08:30pm 11.1 10.1 10.9 99 0.1 NNW 7 9 4 5 1016.6 1016.6 0.8
01/08:00pm 12.1 10.4 9.8 86 1.2 W 9 11 5 6 1016.5 1016.5 0.8
01/07:30pm 14.4 12.8 11.7 84 1.5 W 11 15 6 8 1015.9 1015.9 0.8
01/07:00pm 14.0 13.4 12.2 89 1.0 SSW 7 9 4 5 1015.5 1015.5 0.8
01/06:30pm 13.8 14.0 11.7 87 1.1 NW 2 7 1 4 1014.6 1014.6 0.8
01/06:00pm 15.0 13.5 13.0 88 1.1 NNW 13 17 7 9 1014.3 1014.3 0.8
01/05:30pm 15.9 12.9 13.6 86 1.3 NNW 22 30 12 16 1014.0 1014.0 0.8
01/05:00pm 15.7 10.7 13.4 86 1.3 NNW 32 43 17 23 1014.0 1014.0 0.8
01/04:30pm 15.6 12.6 13.6 88 1.1 NW 22 33 12 18 1015.5 1015.5 0.4
01/04:00pm 17.9 12.4 11.9 68 3.3 W 32 44 17 24 1016.3 1016.3 0.0
01/03:59pm 18.0 12.5 11.8 67 3.4 W 32 44 17 24 1016.4 1016.4 0.0
01/03:46pm 19.9 14.7 10.3 54 5.2 W 28 48 15 26 1016.0 1016.0 0.0
01/03:30pm 21.2 17.6 10.4 50 5.9 W 20 35 11 19 1015.4 1015.4 0.0
01/03:23pm 21.8 17.4 10.3 48 6.3 WNW 24 41 13 22 1015.4 1015.4 0.0
01/03:07pm 21.5 16.2 9.7 47 6.4 WNW 28 46 15 25 1015.3 1015.3 0.0
01/03:00pm 22.1 17.6 9.9 46 6.6 WNW 24 37 13 20 1015.2 1015.2 0.0
01/02:51pm 22.1 17.9 9.6 45 6.7 WNW 22 35 12 19 1015.1 1015.1 0.0
01/02:50pm 22.2 18.4 9.7 45 6.8 WNW 20 35 11 19 1015.1 1015.1 0.0
01/02:40pm 22.3 17.0 9.8 45 6.8 WNW 28 52 15 28 1015.1 1015.1 0.0
01/02:30pm 22.3 19.0 10.8 48 6.3 WNW 19 30 10 16 1015.1 1015.1 0.0
01/02:00pm 22.1 16.5 8.9 43 7.0 NW 28 43 15 23 1015.2 1015.2 0.0
01/01:32pm 21.9 15.6 9.1 44 6.8 NW 32 48 17 26 1014.8 1014.8 0.0
01/01:30pm 21.8 15.2 8.7 43 6.9 NW 33 48 18 26 1014.8 1014.8 0.0
01/01:16pm 21.8 14.5 8.7 43 6.9 NW 37 56 20 30 1015.0 1015.0 0.0
01/01:15pm 21.8 14.0 8.3 42 7.1 NW 39 56 21 30 1015.0 1015.0 0.0
01/01:00pm 22.0 14.6 8.2 41 7.3 NW 37 59 20 32 1015.5 1015.5 0.0
01/12:46pm 23.0 16.3 8.3 39 7.8 NNW 33 52 18 28 1015.5 1015.5 0.0
01/12:42pm 23.0 16.9 9.8 43 7.2 NW 32 48 17 26 1015.5 1015.5 0.0
01/12:30pm 21.3 14.2 8.2 43 6.9 NW 35 54 19 29 1015.5 1015.5 0.0
01/12:11pm 20.8 14.3 8.1 44 6.6 NW 32 50 17 27 1016.0 1016.0 0.0
01/12:00pm 20.4 14.5 7.7 44 6.5 NW 28 44 15 24 1016.3 1016.3 0.0
01/11:30am 18.9 14.2 9.4 54 5.0 N 24 37 13 20 1016.6 1016.6 0.0
01/11:00am 19.9 16.2 10.0 53 5.3 N 20 28 11 15 1017.4 1017.4 0.0
01/10:30am 17.9 15.3 11.9 68 3.3 N 17 24 9 13 1017.4 1017.4 0.0
01/10:00am 16.3 14.1 12.1 76 2.3 N 15 20 8 11 1017.8 1017.8 0.0
01/09:30am 14.6 11.9 11.6 82 1.6 N 17 20 9 11 1018.3 1018.3 0.0
01/09:00am 12.7 11.3 10.9 89 0.9 N 9 13 5 7 1018.6 1018.6 0.2
01/08:30am 12.1 9.4 10.2 88 1.0 N 15 20 8 11 1018.7 1018.7 0.2
01/08:00am 10.6 7.3 9.4 92 0.6 N 17 20 9 11 1019.3 1019.3 0.2
01/07:30am 7.6 4.9 7.3 98 0.1 N 11 15 6 8 1019.4 1019.4 0.2
01/07:00am 5.6 2.1 5.6 100 0.0 NNW 13 15 7 8 1019.4 1019.4 0.2
01/06:30am 4.3 1.3 4.3 100 0.0 NW 9 11 5 6 1019.5 1019.5 0.2
01/06:00am 2.9 1.4 2.8 99 0.0 CALM 0 0 0 0 1019.6 1019.6 0.2
01/05:30am 2.9 1.4 2.9 100 0.0 CALM 0 0 0 0 1019.5 1019.5 0.2
01/05:00am 3.7 2.3 3.7 100 0.0 CALM 0 0 0 0 1019.8 1019.8 0.2
01/04:30am 1.8 0.0 1.1 95 0.3 CALM 0 6 0 3 1019.7 1019.7 0.2
01/04:00am 3.0 1.5 2.9 99 0.0 CALM 0 0 0 0 1019.8 1019.8 0.2
01/03:30am 5.0 3.1 5.0 100 0.0 NNW 4 6 2 3 1020.2 1020.2 0.2
01/03:00am 5.1 2.7 4.4 95 0.3 NNW 6 7 3 4 1020.7 1020.7 0.2
01/02:30am 5.5 2.2 4.8 95 0.3 NNW 11 13 6 7 1021.2 1021.2 0.2
01/02:00am 5.2 2.2 4.3 94 0.4 NNW 9 11 5 6 1021.6 1021.6 0.2
01/01:30am 6.1 3.2 4.9 92 0.5 NNW 9 11 5 6 1022.5 1022.6 0.2
01/01:00am 5.8 3.5 4.8 93 0.4 NNW 6 9 3 5 1022.9 1023.0 0.2
01/12:30am 7.7 5.4 5.7 87 0.9 NNW 7 9 4 5 1023.3 1023.4 0.2
01/12:00am 6.5 4.0 4.8 89 0.7 NNW 7 9 4 5 1023.5 1023.6 0.2
 
Date/Time
CST
Temp
°C
App
Temp
°C
Dew
Point
°C
Rel
Hum
%
Delta-T
°C
Wind Press
QNH
hPa
Press
MSL
hPa
Rain since
9am
mm
Dir  Spd
km/h
Gust
km/h
Spd
kts
Gust
kts
31/11:30pm 6.5 3.6 4.8 89 0.7 NNW 9 9 5 5 1023.9 1024.0 0.2
31/11:00pm 6.9 4.5 5.2 89 0.8 N 7 9 4 5 1024.3 1024.4 0.2
31/10:30pm 6.5 4.2 4.7 88 0.8 NW 6 7 3 4 1024.6 1024.7 0.2
31/10:00pm 6.0 3.7 4.8 92 0.5 NW 6 6 3 3 1025.1 1025.2 0.2
31/09:30pm 7.4 5.1 5.9 90 0.7 NW 7 9 4 5 1025.2 1025.3 0.2
31/09:00pm 7.3 5.2 6.7 96 0.3 NW 7 13 4 7 1025.5 1025.6 0.2
31/08:30pm 7.6 5.4 6.1 90 0.7 WNW 7 11 4 6 1025.5 1025.6 0.2
31/08:00pm 7.0 4.8 6.1 94 0.4 NW 7 9 4 5 1025.7 1025.8 0.2
31/07:30pm 8.7 6.5 6.2 84 1.1 NW 7 11 4 6 1025.9 1026.0 0.2
31/07:00pm 10.5 8.4 8.1 85 1.2 NNW 9 9 5 5 1025.7 1025.8 0.2
31/06:30pm 13.8 11.9 9.0 73 2.4 N 9 11 5 6 1025.8 1025.9 0.2
31/06:00pm 13.5 12.6 10.5 82 1.6 N 6 9 3 5 1025.9 1026.0 0.2
31/05:30pm 17.2 16.5 11.5 69 3.1 N 6 7 3 4 1025.8 1025.9 0.2
31/05:00pm 19.0 17.6 10.8 59 4.4 N 9 11 5 6 1025.6 1025.7 0.2
31/04:30pm 19.9 17.6 10.3 54 5.2 N 13 17 7 9 1025.9 1026.0 0.2
31/04:00pm 20.4 17.6 9.9 51 5.6 N 15 20 8 11 1026.1 1026.2 0.2
31/03:30pm 20.6 18.1 11.0 54 5.2 NNE 15 20 8 11 1026.5 1026.6 0.2
31/03:00pm 20.5 16.6 8.8 47 6.1 NNE 19 24 10 13 1026.7 1026.8 0.2
31/02:30pm 20.3 16.5 9.2 49 5.9 NNE 19 24 10 13 1027.2 1027.3 0.2
31/02:00pm 20.3 16.5 9.2 49 5.9 NNE 19 22 10 12 1027.6 1027.7 0.2
31/01:30pm 19.8 15.7 10.0 53 5.2 NNE 22 28 12 15 1028.3 1028.4 0.2
31/01:00pm 19.6 15.9 10.3 55 5.0 NNE 20 26 11 14 1029.0 1029.1 0.2
31/12:30pm 19.5 17.1 12.8 65 3.8 NNE 17 26 9 14 1029.5 1029.6 0.2
31/12:00pm 18.5 15.8 11.8 65 3.7 N 17 24 9 13 1030.2 1030.3 0.0
31/11:30am 17.0 15.3 12.3 74 2.6 NNE 13 20 7 11 1030.6 1030.7 0.0
31/11:00am 15.9 13.8 12.3 79 2.0 NNE 15 20 8 11 1031.0 1031.1 0.0
31/10:30am 13.9 13.1 13.9 100 0.0 NE 11 15 6 8 1031.3 1031.4 0.0
31/10:14am 12.7 12.2 12.7 100 0.0 ENE 7 13 4 7 1031.5 1031.6 0.0
31/10:00am 12.0 11.5 12.0 100 0.0 NE 6 11 3 6 1031.6 1031.7 0.0
31/09:55am 11.6 10.8 11.6 100 0.0 ENE 7 11 4 6 1031.6 1031.7 0.0
31/09:30am 10.6 10.1 10.6 100 0.0 NNE 4 7 2 4 1031.8 1031.9 0.0
31/09:18am 10.2 9.2 10.2 100 0.0 N 6 7 3 4 1031.9 1032.0 0.0
31/09:14am 10.3 9.3 10.3 100 0.0 N 6 9 3 5 1031.9 1032.0 0.0
31/09:00am 9.3 7.8 9.3 100 0.0 N 7 9 4 5 1031.9 1032.0 0.2
31/08:30am 8.4 6.7 8.4 100 0.0 NNW 7 11 4 6 1032.0 1032.1 0.2
31/08:00am 7.3 5.9 7.3 100 0.0 N 4 7 2 4 1032.0 1032.1 0.2
31/07:37am 7.0 6.3 7.0 100 0.0 CALM 0 0 0 0 1032.1 1032.2 0.2
31/07:30am 6.6 5.8 6.6 100 0.0 CALM 0 0 0 0 1032.1 1032.2 0.2
31/07:00am 6.4 4.4 6.4 100 0.0 NW 6 7 3 4 1032.1 1032.2 0.2
31/06:57am 6.4 4.4 6.4 100 0.0 NW 6 7 3 4 1032.1 1032.2 0.2
31/06:51am 6.4 4.4 6.4 100 0.0 NW 6 7 3 4 1032.1 1032.2 0.2
31/06:30am 6.8 5.7 6.8 100 0.0 NW 2 6 1 3 1032.0 1032.1 0.2
31/06:26am 6.7 5.2 6.7 100 0.0 NW 4 6 2 3 1032.0 1032.1 0.2
31/06:10am 6.3 5.1 6.3 100 0.0 NW 2 7 1 4 1031.9 1032.0 0.2
31/06:08am 6.2 4.9 6.2 100 0.0 NW 2 7 1 4 1031.9 1032.0 0.2
31/06:00am 5.8 4.8 5.8 100 0.0 CALM 0 0 0 0 1031.8 1031.9 0.2
31/05:30am 6.2 5.3 6.2 100 0.0 CALM 0 0 0 0 1031.8 1031.9 0.2
31/05:28am 6.2 5.3 6.2 100 0.0 CALM 0 0 0 0 1031.7 1031.8 0.2
31/05:12am 5.8 4.8 5.8 100 0.0 CALM 0 0 0 0 1031.6 1031.7 0.2
31/05:08am 5.5 4.5 5.5 100 0.0 CALM 0 0 0 0 1031.6 1031.7 0.2
31/05:01am 5.2 4.1 5.2 100 0.0 CALM 0 6 0 3 1031.6 1031.7 0.2
31/05:00am 5.3 3.9 5.3 100 0.0 NW 2 6 1 3 1031.6 1031.7 0.2
31/04:56am 5.3 3.5 5.3 100 0.0 NW 4 7 2 4 1031.6 1031.7 0.2
31/04:33am 5.3 3.1 5.3 100 0.0 WSW 6 7 3 4 1031.8 1031.9 0.2
31/04:30am 4.9 2.6 4.9 100 0.0 WSW 6 7 3 4 1031.8 1031.9 0.2
31/04:25am 4.8 3.3 4.8 100 0.0 WSW 2 7 1 4 1031.8 1031.9 0.2
31/04:06am 3.8 1.7 3.8 100 0.0 WSW 4 6 2 3 1031.8 1031.9 0.2
31/04:00am 3.7 1.9 3.7 100 0.0 WSW 2 6 1 3 1031.9 1032.0 0.2
31/03:57am 3.7 2.3 3.7 100 0.0 CALM 0 6 0 3 1031.9 1032.0 0.2
31/03:30am 4.2 2.9 4.2 100 0.0 CALM 0 0 0 0 1031.9 1032.0 0.2
31/03:24am 4.2 2.5 4.2 100 0.0 WSW 2 6 1 3 1031.9 1032.0 0.2
31/03:18am 4.4 3.2 4.4 100 0.0 CALM 0 6 0 3 1031.9 1032.0 0.2
31/03:13am 4.9 3.4 4.9 100 0.0 WSW 2 6 1 3 1032.0 1032.1 0.2
31/03:00am 5.6 4.6 5.6 100 0.0 CALM 0 6 0 3 1032.1 1032.2 0.0
31/02:53am 5.6 4.2 5.6 100 0.0 WSW 2 6 1 3 1032.2 1032.3 0.0
31/02:44am 6.0 3.9 6.0 100 0.0 W 6 9 3 5 1032.2 1032.3 0.0
31/02:40am 6.5 4.0 6.5 100 0.0 W 9 13 5 7 1032.2 1032.3 0.0
31/02:30am 7.8 5.2 7.8 100 0.0 W 11 17 6 9 1032.2 1032.3 0.0
31/02:27am 7.5 5.6 7.5 100 0.0 WNW 7 17 4 9 1032.2 1032.3 0.0
31/02:01am 6.2 4.9 6.2 100 0.0 NW 2 6 1 3 1032.5 1032.6 0.0
31/02:00am 6.4 5.2 6.4 100 0.0 NW 2 6 1 3 1032.5 1032.6 0.0
31/01:37am 7.2 5.2 7.2 100 0.0 W 7 11 4 6 1032.7 1032.8 0.0
31/01:30am 6.8 4.9 6.8 100 0.0 W 6 11 3 6 1032.8 1032.9 0.0
31/01:06am 6.3 4.7 6.3 100 0.0 WSW 4 7 2 4 1032.8 1032.9 0.0
31/01:00am 6.5 5.3 6.5 100 0.0 WSW 2 6 1 3 1032.9 1033.0 0.0
31/12:55am 6.4 4.8 6.4 100 0.0 WSW 4 7 2 4 1032.9 1033.0 0.0
31/12:48am 7.2 5.4 7.2 100 0.0 SW 6 7 3 4 1032.9 1033.0 0.0
31/12:30am 7.2 5.4 7.2 100 0.0 WSW 6 11 3 6 1032.8 1032.9 0.0
31/12:29am 7.2 5.4 7.2 100 0.0 WSW 6 11 3 6 1032.8 1032.9 0.0
31/12:15am 8.3 5.8 8.3 100 0.0 W 11 15 6 8 1032.9 1033.0 0.0
31/12:09am 8.6 6.2 8.6 100 0.0 W 11 15 6 8 1033.0 1033.1 0.0
31/12:00am 8.8 6.1 8.8 100 0.0 W 13 17 7 9 1033.1 1033.2 0.0
 
Date/Time
CST
Temp
°C
App
Temp
°C
Dew
Point
°C
Rel
Hum
%
Delta-T
°C
Wind Press
QNH
hPa
Press
MSL
hPa
Rain since
9am
mm
Dir  Spd
km/h
Gust
km/h
Spd
kts
Gust
kts
30/11:40pm 9.2 6.2 9.2 100 0.0 W 15 17 8 9 1033.3 1033.4 0.0
30/11:32pm 9.4 6.4 9.4 100 0.0 W 15 19 8 10 1033.3 1033.4 0.0
30/11:30pm 9.4 6.4 9.4 100 0.0 W 15 19 8 10 1033.3 1033.4 0.0
30/11:29pm 9.4 6.4 9.4 100 0.0 W 15 19 8 10 1033.3 1033.4 0.0
30/11:25pm 9.5 6.9 9.5 100 0.0 W 13 17 7 9 1033.3 1033.4 0.0
30/11:00pm 9.1 6.8 9.1 100 0.0 WSW 11 15 6 8 1033.6 1033.7 0.0
30/10:30pm 9.4 7.6 9.4 100 0.0 W 9 13 5 7 1033.7 1033.8 0.0
30/10:00pm 9.4 6.8 9.4 100 0.0 W 13 15 7 8 1033.7 1033.8 0.0
30/09:30pm 9.0 6.3 9.0 100 0.0 WSW 13 15 7 8 1033.6 1033.7 0.0
30/09:00pm 9.0 6.3 9.0 100 0.0 WSW 13 15 7 8 1033.4 1033.5 0.0
30/08:30pm 8.6 5.8 8.6 100 0.0 SW 13 17 7 9 1033.3 1033.4 0.0
30/08:00pm 8.6 5.8 8.5 99 0.0 SW 13 15 7 8 1032.9 1033.0 0.0
30/07:30pm 9.1 6.9 7.7 91 0.7 SSW 9 9 5 5 1032.6 1032.7 0.0
30/07:00pm 9.8 8.3 8.4 91 0.7 SSW 6 7 3 4 1032.4 1032.5 0.0
30/06:30pm 10.9 9.6 9.8 93 0.6 SSW 7 11 4 6 1032.4 1032.5 0.0
30/06:00pm 11.4 9.7 9.8 90 0.8 S 9 11 5 6 1032.3 1032.4 0.0
30/05:30pm 14.2 12.6 11.4 83 1.5 S 11 15 6 8 1032.3 1032.4 0.0
30/05:00pm 16.3 14.5 11.0 71 2.8 SE 11 13 6 7 1032.2 1032.3 0.0
30/04:30pm 17.3 15.4 10.4 64 3.6 SE 11 13 6 7 1032.2 1032.3 0.0
30/04:00pm 18.0 16.6 8.8 55 4.8 ENE 6 9 3 5 1032.3 1032.4 0.0
30/03:30pm 17.7 15.9 9.3 58 4.4 SE 9 13 5 7 1032.6 1032.7 0.0
30/03:00pm 17.5 16.5 10.4 63 3.8 SSE 6 9 3 5 1032.7 1032.8 0.0
30/02:30pm 17.8 17.3 12.0 69 3.2 NE 6 9 3 5 1032.9 1033.0 0.0
30/02:00pm 16.9 15.7 10.3 65 3.5 NNW 7 9 4 5 1033.2 1033.3 0.0
30/01:30pm 16.5 16.0 12.1 75 2.4 SSW 6 9 3 5 1033.5 1033.6 0.0
30/01:00pm 15.5 14.9 12.4 82 1.7 ESE 7 11 4 6 1034.1 1034.2 0.0
30/12:35pm 14.8 13.7 11.8 82 1.6 ESE 9 13 5 7 1034.4 1034.4 0.0
30/12:30pm 14.6 13.2 10.8 78 2.0 ESE 9 13 5 7 1034.5 1034.5 0.0
30/12:00pm 13.1 12.2 10.5 84 1.3 ESE 6 9 3 5 1035.0 1035.0 0.0
30/11:30am 13.0 11.1 10.5 85 1.3 NE 11 15 6 8 1035.3 1035.3 0.0
30/11:00am 11.9 10.2 10.0 88 1.0 ENE 9 13 5 7 1035.6 1035.6 0.0
30/10:30am 11.7 10.4 10.1 90 0.8 ENE 7 9 4 5 1035.8 1035.8 0.0
30/10:00am 11.4 11.1 10.1 92 0.7 NNE 2 7 1 4 1035.9 1035.9 0.0
30/09:30am 10.8 10.7 9.6 92 0.6 CALM 0 0 0 0 1036.1 1036.1 0.0
30/09:00am 10.6 9.7 9.4 92 0.6 E 4 7 2 4 1036.2 1036.2 0.0
30/08:30am 10.6 9.3 10.1 97 0.3 NE 7 11 4 6 1036.0 1036.0 0.0
30/08:00am 10.1 7.7 10.1 100 0.0 ESE 13 13 7 7 1035.9 1035.9 0.0
30/07:30am 10.2 8.6 10.2 100 0.0 SE 9 13 5 7 1035.9 1035.9 0.0
30/07:00am 10.3 9.3 10.3 100 0.0 SSE 6 9 3 5 1035.6 1035.6 0.0
30/06:30am 10.3 9.7 10.3 100 0.0 SE 4 6 2 3 1035.2 1035.2 0.0
30/06:00am 10.5 8.8 10.0 97 0.3 SSW 9 13 5 7 1035.1 1035.1 0.0
30/05:30am 10.3 8.6 9.8 97 0.2 SSW 9 13 5 7 1035.0 1035.0 0.0

Other formats

Comma delimited format used in spreadsheet applications
http://www.bom.gov.au/fwo/IDS60801/IDS60801.95818.axf

JavaScript Object Notation format (JSON) in row-major order
http://www.bom.gov.au/fwo/IDS60801/IDS60801.95818.json

Data quality

Most of these data are generated automatically and are frequently updated. Quality checks on data are not normally performed. It is possible for incorrect values to appear. Refer to information at About Latest Weather Observations and please check the disclaimer before using these data.